createdAt,value
2019-01-21T00:00:37.556Z,31.23
2019-01-21T00:03:06.344Z,29.30
2019-01-21T00:05:34.778Z,32.60
2019-01-21T00:08:03.378Z,32.25
2019-01-21T00:10:31.826Z,29.80
2019-01-21T00:13:00.253Z,27.87
2019-01-21T00:15:28.686Z,30.12
2019-01-21T00:17:59.129Z,30.65
2019-01-21T00:20:27.650Z,29.60
2019-01-21T00:22:56.085Z,30.60
2019-01-21T00:25:24.528Z,30.97
2019-01-21T00:27:52.971Z,29.07
2019-01-21T00:30:21.414Z,29.60
2019-01-21T00:32:49.850Z,28.45
2019-01-21T00:35:18.285Z,27.37
2019-01-21T00:37:46.729Z,29.10
2019-01-21T00:40:17.422Z,29.02
2019-01-21T00:42:45.888Z,28.30
2019-01-21T00:45:15.353Z,27.82
2019-01-21T00:47:43.787Z,30.17
2019-01-21T00:50:13.557Z,28.73
2019-01-21T00:52:42.011Z,28.02
2019-01-21T00:55:12.581Z,28.45
2019-01-21T00:57:41.189Z,28.70
2019-01-21T01:00:23.858Z,30.93
2019-01-21T01:02:52.302Z,25.73
2019-01-21T01:05:22.657Z,26.63
2019-01-21T01:07:51.098Z,24.27
2019-01-21T01:10:19.540Z,27.37
2019-01-21T01:12:48.006Z,26.93
2019-01-21T01:15:16.502Z,25.87
2019-01-21T01:17:45.021Z,23.10
2019-01-21T01:20:16.527Z,24.00
2019-01-21T01:22:44.969Z,24.87
2019-01-21T01:25:13.722Z,26.07
2019-01-21T01:27:42.231Z,23.30
2019-01-21T01:30:13.106Z,23.17
2019-01-21T01:32:41.567Z,22.27
2019-01-21T01:35:11.329Z,22.97
2019-01-21T01:37:39.862Z,22.23
2019-01-21T01:40:11.367Z,19.33
2019-01-21T01:42:39.809Z,14.33
2019-01-21T01:45:11.474Z,17.20
2019-01-21T01:47:44.676Z,17.40
2019-01-21T01:50:10.243Z,13.37
2019-01-21T01:52:38.689Z,13.08
2019-01-21T01:55:11.314Z,14.17
2019-01-21T01:57:39.760Z,15.68
2019-01-21T02:00:15.629Z,15.30
2019-01-21T02:02:44.086Z,14.73
2019-01-21T02:05:12.572Z,15.77
2019-01-21T02:07:41.054Z,15.67
2019-01-21T02:10:11.762Z,15.40
2019-01-21T02:12:40.192Z,14.77
2019-01-21T02:15:11.598Z,15.48
2019-01-21T02:17:40.039Z,14.63
2019-01-21T02:20:16.446Z,15.93
2019-01-21T02:22:47.120Z,14.73
2019-01-21T02:25:15.838Z,14.97
2019-01-21T02:28:13.265Z,13.40
2019-01-21T02:34:40.151Z,14.80
2019-01-21T02:37:47.309Z,13.27
2019-01-21T02:40:55.819Z,13.30
2019-01-21T02:44:04.335Z,13.93
2019-01-21T02:47:11.429Z,14.00
2019-01-21T02:50:18.539Z,13.75
2019-01-21T02:53:25.628Z,13.70
2019-01-21T02:56:34.132Z,13.43
2019-01-21T02:59:41.248Z,15.13
2019-01-21T03:02:48.354Z,12.50
2019-01-21T03:05:55.465Z,15.00
2019-01-21T03:09:02.565Z,12.95
2019-01-21T03:12:09.670Z,14.20
2019-01-21T03:15:16.788Z,13.80
2019-01-21T03:18:23.872Z,13.63
2019-01-21T03:21:31.048Z,15.20
2019-01-21T03:24:12.097Z,12.85
2019-01-21T03:26:56.039Z,13.20
2019-01-21T03:29:36.827Z,12.63
2019-01-21T03:32:17.540Z,13.80
2019-01-21T03:34:58.406Z,12.95
2019-01-21T03:37:39.521Z,13.45
2019-01-21T03:40:20.516Z,14.53
2019-01-21T03:43:27.628Z,13.48
2019-01-21T03:46:36.145Z,13.90
2019-01-21T03:49:44.954Z,12.33
2019-01-21T03:52:52.089Z,13.10
2019-01-21T03:55:39.953Z,13.25
2019-01-21T03:58:47.231Z,12.90
2019-01-21T04:01:54.439Z,14.38
2019-01-21T04:05:02.936Z,12.93
2019-01-21T04:08:11.508Z,12.93
2019-01-21T04:11:18.633Z,13.80
2019-01-21T04:14:27.153Z,12.60
2019-01-21T04:17:34.280Z,13.25
2019-01-21T04:20:41.387Z,11.68
2019-01-21T04:23:48.519Z,13.10
2019-01-21T04:26:29.272Z,12.30
2019-01-21T04:29:10.258Z,13.00
2019-01-21T04:31:51.219Z,13.35
2019-01-21T04:34:32.256Z,13.40
2019-01-21T04:37:13.208Z,13.25
2019-01-21T04:39:53.376Z,14.18
2019-01-21T04:42:34.620Z,14.10
2019-01-21T04:45:15.402Z,12.10
2019-01-21T04:47:56.086Z,13.20
2019-01-21T04:50:36.873Z,15.53
2019-01-21T04:53:17.861Z,13.13
2019-01-21T04:55:58.320Z,13.90
2019-01-21T04:58:39.008Z,14.30
2019-01-21T05:01:19.848Z,15.32
2019-01-21T05:04:00.611Z,13.60
2019-01-21T05:09:54.092Z,15.15
2019-01-21T05:12:34.869Z,14.03
2019-01-21T05:15:15.754Z,14.63
2019-01-21T05:17:56.584Z,14.87
2019-01-21T05:20:36.877Z,14.80
2019-01-21T05:23:17.756Z,14.78
2019-01-21T05:25:58.736Z,16.07
2019-01-21T05:28:39.430Z,15.20
2019-01-21T05:31:20.086Z,15.43
2019-01-21T05:34:01.266Z,16.05
2019-01-21T05:36:41.972Z,15.58
2019-01-21T05:39:22.747Z,15.20
2019-01-21T05:42:03.309Z,15.18
2019-01-21T05:44:44.033Z,16.05
2019-01-21T05:47:24.796Z,15.80
2019-01-21T05:50:05.820Z,15.32
2019-01-21T05:52:46.673Z,16.32
2019-01-21T05:55:27.584Z,15.20
2019-01-21T05:58:07.937Z,15.43
2019-01-21T06:00:48.393Z,15.88
2019-01-21T06:03:29.370Z,15.48
2019-01-21T06:06:10.016Z,17.48
2019-01-21T06:08:50.521Z,16.30
2019-01-21T06:11:31.357Z,15.65
2019-01-21T06:14:12.400Z,14.65
2019-01-21T06:16:53.291Z,14.73
2019-01-21T06:19:34.085Z,16.57
2019-01-21T06:22:14.827Z,14.47
2019-01-21T06:24:55.379Z,15.00
2019-01-21T06:27:35.731Z,14.63
2019-01-21T06:30:16.548Z,13.05
2019-01-21T06:32:57.632Z,16.60
2019-01-21T06:35:38.696Z,15.30
2019-01-21T06:38:19.376Z,14.53
2019-01-21T06:41:00.233Z,16.17
2019-01-21T06:43:40.568Z,15.15
2019-01-21T06:46:21.541Z,14.10
2019-01-21T06:49:04.876Z,14.20
2019-01-21T06:51:44.411Z,15.18
2019-01-21T06:54:24.970Z,15.55
2019-01-21T06:57:05.753Z,16.00
2019-01-21T06:59:46.846Z,15.03
2019-01-21T07:05:08.328Z,15.95
2019-01-21T07:07:48.669Z,16.32
2019-01-21T07:10:29.564Z,17.02
2019-01-21T07:13:10.552Z,19.57
2019-01-21T07:15:51.493Z,18.30
2019-01-21T07:18:32.281Z,19.55
2019-01-21T07:21:13.488Z,19.60
2019-01-21T07:24:20.621Z,20.70
2019-01-21T07:27:29.156Z,17.57
2019-01-21T07:30:37.664Z,19.67
2019-01-21T07:33:44.780Z,16.75
2019-01-21T07:36:51.876Z,19.32
2019-01-21T07:39:58.976Z,18.98
2019-01-21T07:43:07.494Z,18.92
2019-01-21T07:46:16.016Z,19.65
2019-01-21T07:49:23.162Z,20.25
2019-01-21T07:52:30.275Z,19.70
2019-01-21T07:55:38.813Z,19.62
2019-01-21T07:58:45.937Z,17.10
2019-01-21T08:01:54.444Z,19.73
2019-01-21T08:05:02.977Z,17.92
2019-01-21T08:08:10.082Z,22.37
2019-01-21T08:11:17.311Z,24.02
2019-01-21T08:14:25.825Z,24.57
2019-01-21T08:17:32.923Z,23.00
2019-01-21T08:20:41.452Z,19.25
2019-01-21T08:23:48.577Z,18.98
2019-01-21T08:26:28.829Z,18.52
2019-01-21T08:29:09.551Z,20.05
2019-01-21T08:31:50.363Z,21.23
2019-01-21T08:34:31.076Z,23.98
2019-01-21T08:37:12.022Z,22.85
2019-01-21T08:40:20.532Z,23.40
2019-01-21T08:43:27.629Z,23.75
2019-01-21T08:46:34.752Z,23.95
2019-01-21T08:49:41.873Z,25.95
2019-01-21T08:52:50.360Z,26.77
2019-01-21T08:55:57.492Z,25.35
2019-01-21T08:59:04.605Z,22.40
2019-01-21T09:02:11.725Z,20.12
2019-01-21T09:05:20.243Z,19.27
2019-01-21T09:08:27.363Z,18.17
2019-01-21T09:11:35.880Z,20.00
2019-01-21T09:14:42.969Z,17.93
2019-01-21T09:17:51.493Z,17.03
2019-01-21T09:20:58.621Z,17.20
2019-01-21T09:24:05.721Z,20.83
2019-01-21T09:26:46.746Z,21.93
2019-01-21T09:29:27.381Z,20.30
2019-01-21T09:32:08.469Z,18.87
2019-01-21T09:34:54.790Z,18.50
2019-01-21T09:38:03.318Z,17.50
2019-01-21T09:41:10.429Z,19.67
2019-01-21T09:44:18.923Z,19.53
2019-01-21T09:47:06.250Z,22.93
2019-01-21T09:49:54.021Z,21.40
2019-01-21T09:52:42.079Z,18.70
2019-01-21T09:55:29.871Z,16.93
2019-01-21T09:58:38.421Z,18.20
2019-01-21T10:01:26.257Z,22.10
2019-01-21T10:04:34.767Z,16.17
2019-01-21T10:07:41.869Z,17.57
2019-01-21T10:10:50.367Z,14.43
2019-01-21T10:13:57.490Z,15.73
2019-01-21T10:17:04.587Z,15.07
2019-01-21T10:20:11.687Z,15.90
2019-01-21T10:23:04.275Z,15.70
2019-01-21T10:25:38.495Z,17.33
2019-01-21T10:28:18.630Z,14.60
2019-01-21T10:31:12.821Z,16.83
2019-01-21T10:34:08.939Z,16.07
2019-01-21T10:37:09.112Z,16.40
2019-01-21T10:39:49.242Z,16.33
2019-01-21T10:42:32.050Z,15.33
2019-01-21T10:45:15.518Z,15.17
2019-01-21T10:48:10.850Z,15.47
2019-01-21T10:50:51.534Z,11.77
2019-01-21T10:53:23.056Z,14.70
2019-01-21T10:56:06.571Z,14.13
2019-01-21T10:59:02.330Z,15.40
2019-01-21T11:01:48.903Z,15.73
2019-01-21T11:04:20.422Z,16.90
2019-01-21T11:06:57.421Z,12.93
2019-01-21T11:09:38.066Z,15.87
2019-01-21T11:12:15.498Z,16.07
2019-01-21T11:14:55.787Z,10.67
2019-01-21T11:17:39.337Z,14.20
2019-01-21T11:20:22.811Z,14.13
2019-01-21T11:23:00.192Z,15.07
2019-01-21T11:25:54.478Z,14.30
2019-01-21T11:28:31.657Z,14.73
2019-01-21T11:31:03.986Z,13.67
2019-01-21T11:33:47.254Z,14.70
2019-01-21T11:36:51.825Z,15.40
2019-01-21T11:39:44.012Z,15.40
2019-01-21T11:42:24.447Z,14.73
2019-01-21T11:45:14.152Z,15.77
2019-01-21T11:47:48.578Z,12.53
2019-01-21T11:50:25.829Z,15.10
2019-01-21T11:53:14.763Z,14.60
2019-01-21T11:55:54.994Z,14.60
2019-01-21T11:58:38.411Z,15.00
2019-01-21T12:01:09.928Z,14.60
2019-01-21T12:04:11.653Z,14.00
2019-01-21T12:06:43.166Z,16.63
2019-01-21T12:09:17.360Z,15.90
2019-01-21T12:12:06.934Z,13.47
2019-01-21T12:14:47.581Z,17.37
2019-01-21T12:17:37.190Z,15.47
2019-01-21T12:20:17.044Z,14.40
2019-01-21T12:23:08.254Z,16.73
2019-01-21T12:25:48.755Z,14.73
2019-01-21T12:28:35.298Z,15.57
2019-01-21T12:31:15.589Z,11.23
2019-01-21T12:34:08.258Z,17.20
2019-01-21T12:36:39.766Z,15.30
2019-01-21T12:39:19.382Z,15.93
2019-01-21T12:41:53.578Z,15.93
2019-01-21T12:44:30.839Z,15.57
2019-01-21T12:47:21.761Z,16.30
2019-01-21T12:50:10.874Z,17.73
2019-01-21T12:52:45.222Z,15.83
2019-01-21T12:55:36.194Z,16.43
2019-01-21T12:58:13.433Z,15.80
2019-01-21T13:00:53.533Z,16.57
2019-01-21T13:03:43.091Z,17.97
2019-01-21T13:06:36.335Z,16.93
2019-01-21T13:09:19.767Z,16.80
2019-01-21T13:11:59.874Z,14.97
2019-01-21T13:14:40.022Z,17.53
2019-01-21T13:17:11.518Z,18.73
2019-01-21T13:19:58.065Z,17.10
2019-01-21T13:22:32.079Z,16.07
2019-01-21T13:25:18.636Z,16.70
2019-01-21T13:27:58.792Z,16.83
2019-01-21T13:30:59.242Z,16.10
2019-01-21T13:33:42.923Z,18.10
2019-01-21T13:36:26.470Z,17.00
2019-01-21T13:39:01.072Z,16.40
2019-01-21T13:41:35.493Z,14.90
2019-01-21T13:44:09.923Z,17.20
2019-01-21T13:47:01.083Z,14.93
2019-01-21T13:49:56.133Z,17.67
2019-01-21T13:52:46.972Z,16.60
2019-01-21T13:55:18.494Z,15.50
2019-01-21T13:57:52.546Z,14.60
2019-01-21T14:00:24.059Z,17.20
2019-01-21T14:03:04.060Z,15.37
2019-01-21T14:05:52.381Z,17.20
2019-01-21T14:08:29.675Z,16.57
2019-01-21T14:11:22.498Z,15.50
2019-01-21T14:13:59.729Z,17.77
2019-01-21T14:16:31.243Z,16.40
2019-01-21T14:19:26.707Z,16.60
2019-01-21T14:22:20.682Z,16.13
2019-01-21T14:25:08.819Z,16.40
2019-01-21T14:27:55.697Z,15.43
2019-01-21T14:30:43.992Z,16.30
2019-01-21T14:33:24.029Z,16.30
2019-01-21T14:36:09.916Z,16.30
2019-01-21T14:39:02.485Z,15.17
2019-01-21T14:41:42.671Z,15.03
2019-01-21T14:44:19.910Z,15.40
2019-01-21T14:47:06.441Z,16.40
2019-01-21T14:49:43.818Z,15.50
2019-01-21T14:52:39.040Z,17.37
2019-01-21T14:55:25.387Z,15.70
2019-01-21T14:58:05.735Z,16.37
2019-01-21T15:00:42.979Z,15.87
2019-01-21T15:03:14.584Z,16.23
2019-01-21T15:06:08.592Z,16.83
2019-01-21T15:08:40.125Z,17.17
2019-01-21T15:11:26.639Z,17.47
2019-01-21T15:14:03.983Z,16.57
2019-01-21T15:16:44.318Z,16.27
2019-01-21T15:19:15.895Z,17.37
2019-01-21T15:21:50.395Z,17.93
2019-01-21T15:24:30.515Z,16.93
2019-01-21T15:27:13.811Z,16.80
2019-01-21T15:29:54.089Z,17.30
2019-01-21T15:32:43.688Z,16.90
2019-01-21T15:35:33.984Z,16.30
2019-01-21T15:38:21.931Z,16.30
2019-01-21T15:40:56.201Z,18.37
2019-01-21T15:43:42.902Z,17.37
2019-01-21T15:46:20.379Z,16.27
2019-01-21T15:48:57.595Z,18.43
2019-01-21T15:51:31.996Z,16.70
2019-01-21T15:54:15.430Z,18.33
2019-01-21T15:56:52.646Z,18.10
2019-01-21T16:00:12.967Z,18.33
2019-01-21T16:03:20.323Z,18.70
2019-01-21T16:06:28.822Z,20.00
2019-01-21T16:09:35.929Z,17.93
2019-01-21T16:12:43.039Z,17.83
2019-01-21T16:15:50.140Z,17.67
2019-01-21T16:18:57.265Z,17.97
2019-01-21T16:22:05.767Z,17.57
2019-01-21T16:24:46.247Z,16.13
2019-01-21T16:27:26.833Z,18.00
2019-01-21T16:30:07.626Z,21.00
2019-01-21T16:32:48.541Z,21.10
2019-01-21T16:35:29.305Z,20.20
2019-01-21T16:38:09.998Z,18.70
2019-01-21T16:40:50.972Z,18.63
2019-01-21T16:43:31.850Z,20.20
2019-01-21T16:46:12.487Z,24.57
2019-01-21T16:48:53.276Z,26.17
2019-01-21T16:51:34.280Z,25.93
2019-01-21T16:54:14.862Z,25.40
2019-01-21T16:56:55.477Z,23.33
2019-01-21T16:59:36.235Z,23.90
2019-01-21T17:02:17.033Z,20.73
2019-01-21T17:04:45.560Z,23.80
2019-01-21T17:07:33.416Z,22.00
2019-01-21T17:10:21.200Z,22.30
2019-01-21T17:13:08.997Z,23.97
2019-01-21T17:15:56.768Z,24.10
2019-01-21T17:18:44.546Z,22.30
2019-01-21T17:21:32.324Z,21.20
2019-01-21T17:24:13.146Z,21.00
2019-01-21T17:26:53.468Z,24.30
2019-01-21T17:29:34.321Z,23.07
2019-01-21T17:32:15.442Z,25.87
2019-01-21T17:34:56.836Z,25.83
2019-01-21T17:37:37.328Z,26.67
2019-01-21T17:40:18.207Z,25.97
2019-01-21T17:42:59.183Z,29.10
2019-01-21T17:45:39.893Z,31.80
2019-01-21T17:48:20.387Z,31.20
2019-01-21T17:51:01.023Z,31.30
2019-01-21T17:53:41.731Z,32.53
2019-01-21T17:56:22.555Z,31.20
2019-01-21T17:58:50.997Z,27.90
2019-01-21T18:01:39.448Z,27.27
2019-01-21T18:04:28.296Z,24.63
2019-01-21T18:06:56.735Z,26.20
2019-01-21T18:09:44.528Z,26.93
2019-01-21T18:12:32.323Z,26.23
2019-01-21T18:15:20.130Z,24.27
2019-01-21T18:18:07.965Z,23.53
2019-01-21T18:20:55.748Z,22.23
2019-01-21T18:23:43.536Z,21.73
2019-01-21T18:26:24.468Z,21.00
2019-01-21T18:29:05.124Z,20.37
2019-01-21T18:31:45.865Z,19.70
2019-01-21T18:34:26.395Z,22.07
2019-01-21T18:37:07.152Z,20.47
2019-01-21T18:39:48.210Z,20.83
2019-01-21T18:42:28.675Z,19.95
2019-01-21T18:45:09.248Z,20.17
2019-01-21T18:47:50.140Z,19.80
2019-01-21T18:50:18.643Z,20.90
2019-01-21T18:53:06.450Z,21.00
2019-01-21T18:55:53.919Z,21.30
2019-01-21T18:58:41.693Z,21.80
2019-01-21T19:01:29.494Z,20.37
2019-01-21T19:03:57.932Z,20.65
2019-01-21T19:06:45.736Z,18.60
2019-01-21T19:09:33.499Z,18.20
2019-01-21T19:12:21.313Z,19.50
2019-01-21T19:15:28.409Z,20.97
2019-01-21T19:18:16.200Z,20.77
2019-01-21T19:21:03.985Z,18.45
2019-01-21T19:23:51.777Z,20.20
2019-01-21T19:26:32.047Z,18.67
2019-01-21T19:29:12.389Z,18.90
2019-01-21T19:31:53.107Z,18.10
2019-01-21T19:34:34.078Z,18.77
2019-01-21T19:37:14.815Z,19.12
2019-01-21T19:39:55.779Z,19.17
2019-01-21T19:42:36.250Z,20.45
2019-01-21T19:45:17.091Z,20.60
2019-01-21T19:47:58.106Z,21.68
2019-01-21T19:50:39.033Z,21.45
2019-01-21T19:53:19.882Z,20.00
2019-01-21T19:56:00.659Z,22.58
2019-01-21T19:58:41.380Z,20.77
2019-01-21T20:01:22.272Z,20.50
2019-01-21T20:04:02.923Z,21.33
2019-01-21T20:06:43.561Z,21.25
2019-01-21T20:09:24.351Z,21.93
2019-01-21T20:12:05.190Z,20.25
2019-01-21T20:14:46.128Z,22.17
2019-01-21T20:17:27.050Z,31.23
2019-01-21T20:20:07.926Z,19.80
2019-01-21T20:22:48.532Z,20.55
2019-01-21T20:25:29.308Z,19.92
2019-01-21T20:28:10.363Z,20.85
2019-01-21T20:30:51.409Z,19.62
2019-01-21T20:33:32.380Z,20.35
2019-01-21T20:36:13.392Z,18.70
2019-01-21T20:38:54.235Z,21.27
2019-01-21T20:41:35.288Z,20.15
2019-01-21T20:44:15.568Z,18.82
2019-01-21T20:46:56.247Z,19.05
2019-01-21T20:49:37.257Z,19.50
2019-01-21T20:52:05.700Z,20.55
2019-01-21T20:54:53.582Z,21.17
2019-01-21T20:57:41.369Z,20.57
2019-01-21T21:00:49.878Z,21.07
2019-01-21T21:03:37.660Z,19.60
2019-01-21T21:06:25.446Z,20.50
2019-01-21T21:09:13.230Z,19.75
2019-01-21T21:12:01.014Z,18.70
2019-01-21T21:14:48.799Z,18.57
2019-01-21T21:17:36.574Z,19.65
2019-01-21T21:20:24.381Z,23.10
2019-01-21T21:23:12.164Z,28.65
2019-01-21T21:25:52.652Z,26.15
2019-01-21T21:28:33.160Z,25.30
2019-01-21T21:31:14.183Z,25.45
2019-01-21T21:33:55.266Z,24.07
2019-01-21T21:36:35.899Z,23.95
2019-01-21T21:39:16.520Z,21.40
2019-01-21T21:41:57.207Z,21.40
2019-01-21T21:44:38.602Z,21.35
2019-01-21T21:47:19.160Z,19.75
2019-01-21T21:49:59.786Z,20.15
2019-01-21T21:52:40.494Z,19.35
2019-01-21T21:55:21.083Z,18.10
2019-01-21T21:58:02.325Z,20.85
2019-01-21T22:00:30.928Z,19.42
2019-01-21T22:03:18.709Z,21.20
2019-01-21T22:06:06.499Z,19.12
2019-01-21T22:08:54.275Z,19.15
2019-01-21T22:11:42.068Z,21.95
2019-01-21T22:14:29.917Z,18.48
2019-01-21T22:17:17.779Z,17.65
2019-01-21T22:20:26.378Z,16.90
2019-01-21T22:23:14.235Z,19.65
2019-01-21T22:25:54.848Z,17.10
2019-01-21T22:28:35.795Z,17.60
2019-01-21T22:31:16.404Z,17.30
2019-01-21T22:33:57.058Z,16.77
2019-01-21T22:36:38.046Z,19.55
2019-01-21T22:39:18.652Z,19.10
2019-01-21T22:41:59.527Z,18.10
2019-01-21T22:44:40.177Z,18.77
2019-01-21T22:47:21.063Z,20.08
2019-01-21T22:50:01.651Z,17.42
2019-01-21T22:52:42.595Z,19.67
2019-01-21T22:55:23.559Z,17.92
2019-01-21T22:58:04.156Z,19.15
2019-01-21T23:00:49.027Z,18.05
2019-01-21T23:03:29.785Z,19.07
2019-01-21T23:06:10.456Z,17.50
2019-01-21T23:08:51.492Z,17.75
2019-01-21T23:11:32.476Z,17.90
2019-01-21T23:14:13.289Z,19.37
2019-01-21T23:16:53.951Z,19.07
2019-01-21T23:19:34.771Z,16.40
2019-01-21T23:22:15.485Z,17.55
2019-01-21T23:24:56.097Z,17.20
2019-01-21T23:27:37.027Z,19.55
2019-01-21T23:30:11.550Z,19.17
2019-01-21T23:32:40.008Z,16.40
2019-01-21T23:35:08.670Z,18.10
2019-01-21T23:37:37.094Z,18.32
2019-01-21T23:40:08.652Z,18.75
2019-01-21T23:42:37.223Z,18.02
2019-01-21T23:45:08.225Z,18.48
2019-01-21T23:47:36.723Z,19.67
2019-01-21T23:50:16.618Z,17.85
2019-01-21T23:52:45.055Z,20.85
2019-01-21T23:55:13.938Z,17.75
2019-01-21T23:57:42.375Z,18.05
